Rechercher aéroport 
image banner adimage banner adimage banner ad
image banner ad

6PA0 - Myer

Situé à Milford, United States

ICAO - 6PA0, IATA -

Données fournies par Airmate  

Information générale

Coordonnées: N41°21'0" W74°55'59"
Élévation : 1345 feet MSL.
Variation magnétique : -12° East
Voir autres Aéroports à Pennsylvania

Données opérationnelles

Special qualification required
Heure actuelle UTC:
Heure actuelle locale:
Météo à : KFWN - Sussex ( 31 km )
METAR: KFWN 131953Z AUTO 22005KT 10SM OVC029 23/17 A2991 RMK AO2 SLP125 T02280172
Voir NOTAMs / SUP AIP / TFR affectant cet aéroport [VIEW]
Fréquences de communication: [VIEW]

Pistes:

Identifiant RWYQFULongueur (ft)Largeur (ft)SurfaceLDA (ft)
N2500200GRASS
S2500200GRASS

Coordonnées de l'aéroport

Adresse: Milford United States

Vue satellite de 6PA0